Pontiac, IL

1:50 PM CDT on May 25, 2015 (GMT -0500)
APRSWXNET | | Change Station
CLOSE
Current Station
Personal Weather Station
Location: Pontiac, IL
Elevation: 646 ft
Nearby Weather Stations

Elev 646 ft 40.88 °N, 88.63 °W | Updated 29 minutes ago

Overcast
Overcast
76 °F
Feels Like 78 °F
N
10
Wind Variable Wind from West
Gusts 15.0 mph

Today
High -- | Low -- °F
--% Chance of Precip.
Yesterday
High -- | Low -- °F
Precip. -- in
5:29 AM 8:14 PM
Waxing Crescent, 51% visible
Pressure 29.96 in
Visibility 10.0 miles
Clouds Mostly Cloudy 3600 ft
Mostly Cloudy 4600 ft
Heat Index 78 °F
Dew Point 63 °F
Humidity 65%
Rainfall in
Snow Depth Not available.
UV 6 out of 12
Pollen 8.40 out of 12
Air Quality Not available.
Flu Activity Sporadic
METAR KPNT 251835Z AUTO 21013G19KT 10SM BKN036 BKN046 25/18 A2996 RMK AO2 T02520178

More Conditions Fewer Conditions

Pressure 29.96 in
Visibility 10.0 miles
Clouds Mostly Cloudy 3600 ft
Mostly Cloudy 4600 ft
Heat Index 78 °F
Dew Point 63 °F
Humidity 65%
Rainfall in
Snow Depth Not available.
UV 6 out of 12
Pollen 8.40 out of 12
Air Quality Not available.
Flu Activity Sporadic
METAR KPNT 251835Z AUTO 21013G19KT 10SM BKN036 BKN046 25/18 A2996 RMK AO2 T02520178

More Conditions Fewer Conditions

10-Day Weather Forecast

Almanac

Astronomy

May. 25, 2015 Rise Set
Actual Time
Civil Twilight
Nautical Twilight
Astronomical Twilight
Moon
Length of Visible Light
Length of Day
Tomorrow will be .
, % of the Moon is Illuminated

Today's Extremes

State Highs State Lows

Community

WunderPhotos

Upload Photos

1,824,080 photos uploaded!

WunderBlogs® & News

Nearby

Air Quality

  Air Quality AQ Index Pollutant
Not available.

Snow Depth

Station Depth Elevation

Earthquake Activity

City Distance Mag. Time & Date
Minimum magnitude displayed is 2.5.

Coastal Water Temperatures

Place Temperature

Stations

Nearby Weather Stations

Station Location Temp. Windchill Dew Point Humidity Wind Precip. Elev Updated Type